Time;durP1;ratioP1;P1;durP2;ratioP2;P2;SDS_P1;SDS_P2;PMS_P1;PMS_P2;Temp;Humidity;BMP_temperature;BMP_pressure;BME280_temperature;BME280_humidity;BME280_pressure;Samples;Min_cycle;Max_cycle;Signal;HPM_P1;HPM_P2
2022/04/07 00:00:10;;;;;;;;;;;;;;;;;;348837;28;956;-75
2022/04/07 00:00:21;;;;;;;;;;;;;;;;;;348815;28;955;-76
2022/04/07 00:00:31;;;;;;;;;;;;;;;;;;348670;28;757;-76
2022/04/07 00:00:42;;;;;;;;;;;;;;;;;;348816;28;909;-75
2022/04/07 00:00:52;;;;;;;;;;;;;;;;;;348787;28;869;-82
2022/04/07 00:01:05;;;;;;;;;;;;;;;;;;348814;28;928;-78
2022/04/07 00:01:16;;;;;;;;;;;;;;;;;;348559;28;1218;-75
2022/04/07 00:01:26;;;;;;;;;;;;;;;;;;349428;28;1003;-75
2022/04/07 00:01:36;;;;;;;;;;;;;;;;;;348433;28;1604;-75
2022/04/07 00:01:47;;;;;;;;;;;;;;;;;;348410;28;1760;-75
2022/04/07 00:01:57;;;;;;;;;;;;;;;;;;348814;28;908;-75
2022/04/07 00:02:07;;;;;;;;;;;;;;;;;;348772;28;917;-75
2022/04/07 00:02:17;;;;;;;;;;;;;;;;;;348710;28;1584;-75
2022/04/07 00:02:27;;;;;;;;;;;;;;;;;;348774;28;964;-75
2022/04/07 00:02:38;;;;;;;;;;;;;;;;;;348378;28;1345;-79
2022/04/07 00:02:48;;;;;;;;;;;;;;;;;;348750;28;964;-75
2022/04/07 00:02:58;;;;;;;;;;;;;;;;;;348735;28;975;-75
2022/04/07 00:03:08;;;;;;;;;;;;;;;;;;348795;28;822;-76
2022/04/07 00:03:18;;;;;;;;;;;;;;;;;;348795;28;953;-76
2022/04/07 00:03:29;;;;;;;;;;;;;;;;;;348737;28;1918;-76
2022/04/07 00:03:39;;;;;;;;;;;;;;;;;;348825;28;921;-76
2022/04/07 00:03:49;;;;;;;;;;;;;;;;;;348808;28;924;-75
2022/04/07 00:03:59;;;;;;;;;;;;;;;;;;348762;28;872;-78
2022/04/07 00:04:10;;;;;;;;;;;;;;;;;;348599;28;1279;-76
2022/04/07 00:04:21;;;;;;;;;;;;;;;;;;348682;28;928;-76
2022/04/07 00:04:31;;;;;;;;;;;;;;;;;;348463;28;1753;-75
2022/04/07 00:04:41;;;;;;;;;;;;;;;;;;348207;28;1645;-76
2022/04/07 00:04:51;;;;;;;;;;;;;;;;;;348555;28;1820;-75
2022/04/07 00:05:02;;;;;;;;;;;;;;;;;;348588;28;976;-75
2022/04/07 00:05:12;;;;;;;;;;;;;;;;;;348665;28;895;-75
2022/04/07 00:05:22;;;;;;;;;;;;;;;;;;348703;28;959;-75
2022/04/07 00:05:32;;;;;;;;;;;;;;;;;;348644;28;873;-76
2022/04/07 00:05:43;;;;;;;;;;;;;;;;;;348682;28;829;-76
2022/04/07 00:05:53;;;;;;;;;;;;;;;;;;348707;28;905;-75
2022/04/07 00:06:09;;;;;;;;;;;;;;;;;;348685;28;971;-75
2022/04/07 00:06:19;;;;;;;;;;;;;;;;;;348762;28;995;-76
2022/04/07 00:06:30;;;;;;;;;;;;;;;;;;348685;28;1028;-76
2022/04/07 00:06:40;;;;;;;;;;;;;;;;;;348504;28;1679;-75
2022/04/07 00:06:50;;;;;;;;;;;;;;;;;;348724;28;817;-75
2022/04/07 00:07:00;;;;;;;;;;;;;;;;;;348740;28;933;-79
2022/04/07 00:07:10;;;;;;;;;;;;;;;;;;348790;28;786;-76
2022/04/07 00:07:21;;;;;;;;;;;;;;;;;;347998;28;1430;-75
2022/04/07 00:07:31;;;;;;;;;;;;;;;;;;348552;28;1504;-76
2022/04/07 00:07:41;;;;;;;;;;;;;;;;;;348651;28;1666;-76
2022/04/07 00:07:51;;;;;;;;;;;;;;;;;;348795;28;846;-75
2022/04/07 00:08:02;;;;;;;;;;;;;;;;;;348782;28;975;-75
2022/04/07 00:08:12;;;;;;;;;;;;;;;;;;348794;28;945;-76
2022/04/07 00:08:22;;;;;;;;;;;;;;;;;;348784;28;800;-76
2022/04/07 00:08:32;;;;;;;;;;;;;;;;;;348803;28;967;-76
2022/04/07 00:08:43;;;;;;;;;;;;;;;;;;348497;28;1632;-75
2022/04/07 00:08:53;;;;;;;;;;;;;;;;;;348726;28;883;-75
2022/04/07 00:09:03;;;;;;;;;;;;;;;;;;348725;28;955;-81
2022/04/07 00:09:14;;;;;;;;;;;;;;;;;;348707;28;1142;-74
2022/04/07 00:09:24;;;;;;;;;;;;;;;;;;348798;28;991;-75
2022/04/07 00:09:34;;;;;;;;;;;;;;;;;;348728;28;1020;-75
2022/04/07 00:09:44;;;;;;;;;;;;;;;;;;348441;28;1707;-75
2022/04/07 00:09:54;;;;;;;;;;;;;;;;;;348680;28;1784;-75
2022/04/07 00:10:05;;;;;;;;;;;;;;;;;;348733;28;917;-75
2022/04/07 00:10:15;;;;;;;;;;;;;;;;;;348807;28;968;-75
2022/04/07 00:10:26;;;;;;;;;;;;;;;;;;348763;28;933;-76
2022/04/07 00:10:36;;;;;;;;;;;;;;;;;;348794;28;857;-74
2022/04/07 00:10:48;;;;;;;;;;;;;;;;;;348796;28;853;-75
2022/04/07 00:10:58;;;;;;;;;;;;;;;;;;348781;28;916;-75
2022/04/07 00:11:08;;;;;;;;;;;;;;;;;;348739;28;790;-76
2022/04/07 00:11:18;;;;;;;;;;;;;;;;;;348805;28;996;-78
2022/04/07 00:11:29;;;;;;;;;;;;;;;;;;348732;28;991;-75
2022/04/07 00:11:39;;;;;;;;;;;;;;;;;;348805;28;845;-75
2022/04/07 00:11:49;;;;;;;;;;;;;;;;;;348500;28;1640;-75
2022/04/07 00:12:00;;;;;;;;;;;;;;;;;;348687;28;1015;-75
2022/04/07 00:12:10;;;;;;;;;;;;;;;;;;349414;28;1362;-75
2022/04/07 00:12:20;;;;;;;;;;;;;;;;;;348689;28;1736;-75
2022/04/07 00:12:32;;;;;;;;;;;;;;;;;;348795;28;818;-81
2022/04/07 00:12:42;;;;;;;;;;;;;;;;;;348763;28;1174;-75
2022/04/07 00:12:52;;;;;;;;;;;;;;;;;;348773;28;1043;-76
2022/04/07 00:13:03;;;;;;;;;;;;;;;;;;348735;28;848;-75
2022/04/07 00:13:14;;;;;;;;;;;;;;;;;;348778;28;810;-76
2022/04/07 00:13:25;;;;;;;;;;;;;;;;;;348785;28;972;-76
2022/04/07 00:13:35;;;;;;;;;;;;;;;;;;348774;28;900;-75
2022/04/07 00:13:45;;;;;;;;;;;;;;;;;;348582;28;1758;-75
2022/04/07 00:13:55;;;;;;;;;;;;;;;;;;348624;28;1820;-75
2022/04/07 00:14:05;;;;;;;;;;;;;;;;;;348530;28;1655;-75
2022/04/07 00:14:16;;;;;;;;;;;;;;;;;;348696;28;1765;-75
2022/04/07 00:14:26;;;;;;;;;;;;;;;;;;348755;28;885;-75
2022/04/07 00:14:36;;;;;;;;;;;;;;;;;;348706;28;1227;-76
2022/04/07 00:14:46;;;;;;;;;;;;;;;;;;348739;28;975;-75
2022/04/07 00:14:58;;;;;;;;;;;;;;;;;;348760;28;868;-74
2022/04/07 00:15:09;;;;;;;;;;;;;;;;;;348643;28;929;-75
2022/04/07 00:15:20;;;;;;;;;;;;;;;;;;348810;28;810;-75
2022/04/07 00:15:31;;;;;;;;;;;;;;;;;;348762;28;940;-75
2022/04/07 00:15:41;;;;;;;;;;;;;;;;;;348791;28;920;-75
2022/04/07 00:15:53;;;;;;;;;;;;;;;;;;348409;28;1589;-75
2022/04/07 00:16:04;;;;;;;;;;;;;;;;;;348792;28;921;-75
2022/04/07 00:16:14;;;;;;;;;;;;;;;;;;348687;28;1170;-75
2022/04/07 00:16:24;;;;;;;;;;;;;;;;;;348792;28;850;-75
2022/04/07 00:16:34;;;;;;;;;;;;;;;;;;348737;28;798;-76
2022/04/07 00:16:45;;;;;;;;;;;;;;;;;;348747;28;1029;-75
2022/04/07 00:16:55;;;;;;;;;;;;;;;;;;348781;28;908;-75
2022/04/07 00:17:05;;;;;;;;;;;;;;;;;;348763;28;941;-75
2022/04/07 00:17:15;;;;;;;;;;;;;;;;;;348646;28;960;-75
2022/04/07 00:17:27;;;;;;;;;;;;;;;;;;348612;28;1777;-75
2022/04/07 00:17:37;;;;;;;;;;;;;;;;;;347392;28;933;-76
2022/04/07 00:17:47;;;;;;;;;;;;;;;;;;347427;28;1035;-75
2022/04/07 00:17:58;;;;;;;;;;;;;;;;;;347389;28;833;-75
2022/04/07 00:18:08;;;;;;;;;;;;;;;;;;347409;28;909;-75
2022/04/07 00:18:18;;;;;;;;;;;;;;;;;;347404;28;1059;-75
2022/04/07 00:18:29;;;;;;;;;;;;;;;;;;347420;28;840;-76
2022/04/07 00:18:39;;;;;;;;;;;;;;;;;;347390;28;874;-77
2022/04/07 00:18:49;;;;;;;;;;;;;;;;;;347733;28;1672;-76
2022/04/07 00:19:00;;;;;;;;;;;;;;;;;;348786;28;821;-75
2022/04/07 00:19:10;;;;;;;;;;;;;;;;;;348727;28;920;-74
2022/04/07 00:19:22;;;;;;;;;;;;;;;;;;348692;28;960;-75
2022/04/07 00:19:32;;;;;;;;;;;;;;;;;;348755;28;861;-75
2022/04/07 00:19:43;;;;;;;;;;;;;;;;;;348807;28;829;-76
2022/04/07 00:19:53;;;;;;;;;;;;;;;;;;348766;28;916;-76
2022/04/07 00:20:04;;;;;;;;;;;;;;;;;;348574;28;1085;-77
2022/04/07 00:20:14;;;;;;;;;;;;;;;;;;348764;28;949;-75
2022/04/07 00:20:26;;;;;;;;;;;;;;;;;;348819;28;810;-76
2022/04/07 00:20:36;;;;;;;;;;;;;;;;;;348804;28;921;-75
2022/04/07 00:20:47;;;;;;;;;;;;;;;;;;348479;28;1621;-75
2022/04/07 00:20:57;;;;;;;;;;;;;;;;;;348640;28;1820;-75
2022/04/07 00:21:11;;;;;;;;;;;;;;;;;;348484;28;1695;-76
2022/04/07 00:21:25;;;;;;;;;;;;;;;;;;348312;28;1407;-75
2022/04/07 00:21:40;;;;;;;;;;;;;;;;;;348734;28;801;-76
2022/04/07 00:21:51;;;;;;;;;;;;;;;;;;348793;28;893;-75
2022/04/07 00:22:01;;;;;;;;;;;;;;;;;;348708;28;948;-76
2022/04/07 00:22:11;;;;;;;;;;;;;;;;;;348813;28;1012;-75
2022/04/07 00:22:22;;;;;;;;;;;;;;;;;;348777;28;853;-75
2022/04/07 00:22:32;;;;;;;;;;;;;;;;;;348712;28;833;-75
2022/04/07 00:22:42;;;;;;;;;;;;;;;;;;348792;28;947;-75
2022/04/07 00:22:53;;;;;;;;;;;;;;;;;;348283;28;1652;-77
2022/04/07 00:23:03;;;;;;;;;;;;;;;;;;348295;28;1303;-76
2022/04/07 00:23:14;;;;;;;;;;;;;;;;;;348730;28;976;-74
2022/04/07 00:23:24;;;;;;;;;;;;;;;;;;348717;28;836;-76
2022/04/07 00:23:34;;;;;;;;;;;;;;;;;;348625;28;1902;-81
2022/04/07 00:23:44;;;;;;;;;;;;;;;;;;348767;28;972;-79
2022/04/07 00:23:55;;;;;;;;;;;;;;;;;;348801;28;833;-78
2022/04/07 00:24:06;;;;;;;;;;;;;;;;;;348741;28;932;-77
2022/04/07 00:24:16;;;;;;;;;;;;;;;;;;348734;28;951;-75
2022/04/07 00:24:26;;;;;;;;;;;;;;;;;;348793;28;916;-77
2022/04/07 00:24:37;;;;;;;;;;;;;;;;;;348734;28;940;-76
2022/04/07 00:24:47;;;;;;;;;;;;;;;;;;348576;28;1660;-75
2022/04/07 00:24:57;;;;;;;;;;;;;;;;;;348706;28;1737;-75
2022/04/07 00:25:08;;;;;;;;;;;;;;;;;;348501;28;1879;-75
2022/04/07 00:25:18;;;;;;;;;;;;;;;;;;348747;28;920;-75
2022/04/07 00:25:29;;;;;;;;;;;;;;;;;;348715;28;1034;-75
2022/04/07 00:25:39;;;;;;;;;;;;;;;;;;348726;28;952;-75
2022/04/07 00:25:49;;;;;;;;;;;;;;;;;;348770;28;774;-75
2022/04/07 00:26:00;;;;;;;;;;;;;;;;;;348803;28;844;-75
2022/04/07 00:26:10;;;;;;;;;;;;;;;;;;348778;28;975;-75
2022/04/07 00:26:20;;;;;;;;;;;;;;;;;;348741;28;952;-75
2022/04/07 00:26:31;;;;;;;;;;;;;;;;;;348761;28;936;-75
2022/04/07 00:26:41;;;;;;;;;;;;;;;;;;347373;28;1651;-75
2022/04/07 00:26:51;;;;;;;;;;;;;;;;;;347899;28;1656;-75
2022/04/07 00:27:01;;;;;;;;;;;;;;;;;;348749;28;885;-75
2022/04/07 00:27:12;;;;;;;;;;;;;;;;;;348644;28;1691;-75
2022/04/07 00:27:22;;;;;;;;;;;;;;;;;;348739;28;937;-75
2022/04/07 00:27:32;;;;;;;;;;;;;;;;;;348694;28;1023;-75
2022/04/07 00:27:42;;;;;;;;;;;;;;;;;;348754;28;944;-75
2022/04/07 00:27:53;;;;;;;;;;;;;;;;;;348762;28;1187;-75
2022/04/07 00:28:03;;;;;;;;;;;;;;;;;;348794;28;817;-77
2022/04/07 00:28:14;;;;;;;;;;;;;;;;;;348266;28;1673;-75
2022/04/07 00:28:24;;;;;;;;;;;;;;;;;;348364;28;1796;-75
2022/04/07 00:28:35;;;;;;;;;;;;;;;;;;348513;28;1739;-75
2022/04/07 00:28:45;;;;;;;;;;;;;;;;;;348666;28;1144;-76
2022/04/07 00:28:55;;;;;;;;;;;;;;;;;;348774;28;1007;-76
2022/04/07 00:29:05;;;;;;;;;;;;;;;;;;348689;28;996;-76
2022/04/07 00:29:17;;;;;;;;;;;;;;;;;;348661;28;1161;-75
2022/04/07 00:29:27;;;;;;;;;;;;;;;;;;348736;28;959;-76
2022/04/07 00:29:37;;;;;;;;;;;;;;;;;;348738;28;983;-75
2022/04/07 00:29:48;;;;;;;;;;;;;;;;;;348732;28;991;-75
2022/04/07 00:29:58;;;;;;;;;;;;;;;;;;347766;28;1351;-77
2022/04/07 00:30:13;;;;;;;;;;;;;;;;;;347816;28;1469;-77
2022/04/07 00:30:23;;;;;;;;;;;;;;;;;;347622;28;1593;-78
2022/04/07 00:30:36;;;;;;;;;;;;;;;;;;347354;28;944;-76
2022/04/07 00:30:49;;;;;;;;;;;;;;;;;;347385;28;916;-75
2022/04/07 00:30:59;;;;;;;;;;;;;;;;;;347424;28;880;-75
2022/04/07 00:31:11;;;;;;;;;;;;;;;;;;347422;28;968;-75
2022/04/07 00:31:21;;;;;;;;;;;;;;;;;;347437;28;809;-75
2022/04/07 00:31:39;;;;;;;;;;;;;;;;;;347330;28;778;-75
2022/04/07 00:31:56;;;;;;;;;;;;;;;;;;347326;28;983;-75
2022/04/07 00:32:07;;;;;;;;;;;;;;;;;;347341;28;1036;-76
2022/04/07 00:32:17;;;;;;;;;;;;;;;;;;350030;28;904;-76
2022/04/07 00:32:27;;;;;;;;;;;;;;;;;;350004;28;920;-75
2022/04/07 00:32:42;;;;;;;;;;;;;;;;;;349813;28;1221;-75
2022/04/07 00:32:52;;;;;;;;;;;;;;;;;;350001;28;920;-75
2022/04/07 00:33:05;;;;;;;;;;;;;;;;;;349998;28;1729;-75
2022/04/07 00:33:16;;;;;;;;;;;;;;;;;;350010;28;1011;-75
2022/04/07 00:33:26;;;;;;;;;;;;;;;;;;349833;28;1024;-75
2022/04/07 00:33:36;;;;;;;;;;;;;;;;;;350764;28;1636;-75
2022/04/07 00:33:46;;;;;;;;;;;;;;;;;;351319;28;1779;-75
2022/04/07 00:33:57;;;;;;;;;;;;;;;;;;351446;28;983;-75
2022/04/07 00:34:07;;;;;;;;;;;;;;;;;;351247;28;1159;-75
2022/04/07 00:34:17;;;;;;;;;;;;;;;;;;348795;28;1832;-75
2022/04/07 00:34:27;;;;;;;;;;;;;;;;;;348733;28;995;-75
2022/04/07 00:34:39;;;;;;;;;;;;;;;;;;348709;28;972;-75
2022/04/07 00:34:54;;;;;;;;;;;;;;;;;;348708;28;785;-75
2022/04/07 00:35:04;;;;;;;;;;;;;;;;;;348798;28;932;-75
2022/04/07 00:35:15;;;;;;;;;;;;;;;;;;348733;28;999;-75
2022/04/07 00:35:26;;;;;;;;;;;;;;;;;;348688;28;983;-75
2022/04/07 00:35:36;;;;;;;;;;;;;;;;;;348759;28;813;-75
2022/04/07 00:35:47;;;;;;;;;;;;;;;;;;348779;28;912;-79
2022/04/07 00:35:57;;;;;;;;;;;;;;;;;;348669;28;1000;-75
2022/04/07 00:36:07;;;;;;;;;;;;;;;;;;348708;28;956;-76
2022/04/07 00:36:17;;;;;;;;;;;;;;;;;;348706;28;1163;-75
2022/04/07 00:36:27;;;;;;;;;;;;;;;;;;348739;28;979;-75
2022/04/07 00:36:38;;;;;;;;;;;;;;;;;;348448;28;1629;-74
2022/04/07 00:36:49;;;;;;;;;;;;;;;;;;348787;28;936;-76
2022/04/07 00:36:59;;;;;;;;;;;;;;;;;;348704;28;932;-75
2022/04/07 00:37:10;;;;;;;;;;;;;;;;;;348778;28;845;-76
2022/04/07 00:37:24;;;;;;;;;;;;;;;;;;348802;28;857;-74
2022/04/07 00:37:34;;;;;;;;;;;;;;;;;;348614;28;1659;-74
2022/04/07 00:37:44;;;;;;;;;;;;;;;;;;348764;28;920;-75
2022/04/07 00:37:54;;;;;;;;;;;;;;;;;;348717;28;916;-75
2022/04/07 00:38:04;;;;;;;;;;;;;;;;;;348686;28;983;-74
2022/04/07 00:38:15;;;;;;;;;;;;;;;;;;349974;28;1264;-75
2022/04/07 00:38:25;;;;;;;;;;;;;;;;;;350041;28;906;-75
2022/04/07 00:38:35;;;;;;;;;;;;;;;;;;349481;28;1636;-74
2022/04/07 00:38:46;;;;;;;;;;;;;;;;;;348559;28;929;-74
2022/04/07 00:38:56;;;;;;;;;;;;;;;;;;348641;28;920;-75
2022/04/07 00:39:06;;;;;;;;;;;;;;;;;;348636;28;953;-76
2022/04/07 00:39:16;;;;;;;;;;;;;;;;;;348659;28;932;-75
2022/04/07 00:39:26;;;;;;;;;;;;;;;;;;348608;28;1007;-75
2022/04/07 00:39:37;;;;;;;;;;;;;;;;;;348615;28;826;-75
2022/04/07 00:39:47;;;;;;;;;;;;;;;;;;348638;28;909;-75
2022/04/07 00:39:58;;;;;;;;;;;;;;;;;;348834;28;1703;-75
2022/04/07 00:40:09;;;;;;;;;;;;;;;;;;348207;28;1724;-75
2022/04/07 00:40:19;;;;;;;;;;;;;;;;;;347389;28;984;-75
2022/04/07 00:40:30;;;;;;;;;;;;;;;;;;347337;28;921;-74
2022/04/07 00:40:40;;;;;;;;;;;;;;;;;;347342;28;1747;-74
2022/04/07 00:40:50;;;;;;;;;;;;;;;;;;348599;28;1761;-74
2022/04/07 00:41:00;;;;;;;;;;;;;;;;;;348765;28;920;-76
2022/04/07 00:41:10;;;;;;;;;;;;;;;;;;348687;28;1024;-75
2022/04/07 00:41:21;;;;;;;;;;;;;;;;;;348701;28;912;-75
2022/04/07 00:41:31;;;;;;;;;;;;;;;;;;348759;28;849;-77
2022/04/07 00:41:42;;;;;;;;;;;;;;;;;;348664;28;1127;-76
2022/04/07 00:41:52;;;;;;;;;;;;;;;;;;348770;28;915;-75
2022/04/07 00:42:03;;;;;;;;;;;;;;;;;;348630;28;1003;-75
2022/04/07 00:42:13;;;;;;;;;;;;;;;;;;348577;28;1589;-75
2022/04/07 00:42:23;;;;;;;;;;;;;;;;;;348260;28;1714;-76
2022/04/07 00:42:34;;;;;;;;;;;;;;;;;;348753;28;778;-77
2022/04/07 00:42:45;;;;;;;;;;;;;;;;;;348695;28;968;-75
2022/04/07 00:42:55;;;;;;;;;;;;;;;;;;348762;28;933;-75
2022/04/07 00:43:06;;;;;;;;;;;;;;;;;;348764;28;968;-76
2022/04/07 00:43:29;;;;;;;;;;;;;;;;;;348704;28;1097;-74
2022/04/07 00:43:39;;;;;;;;;;;;;;;;;;348716;28;783;-76
2022/04/07 00:43:50;;;;;;;;;;;;;;;;;;348761;28;801;-74
2022/04/07 00:44:01;;;;;;;;;;;;;;;;;;348750;28;944;-75
2022/04/07 00:44:11;;;;;;;;;;;;;;;;;;348771;28;845;-74
2022/04/07 00:44:22;;;;;;;;;;;;;;;;;;348674;28;925;-75
2022/04/07 00:44:32;;;;;;;;;;;;;;;;;;348746;28;841;-75
2022/04/07 00:44:46;;;;;;;;;;;;;;;;;;348718;28;865;-75
2022/04/07 00:44:56;;;;;;;;;;;;;;;;;;348620;28;1750;-74
2022/04/07 00:45:07;;;;;;;;;;;;;;;;;;348340;28;1805;-75
2022/04/07 00:45:19;;;;;;;;;;;;;;;;;;348663;28;1847;-76
2022/04/07 00:45:29;;;;;;;;;;;;;;;;;;348736;28;900;-78
2022/04/07 00:45:39;;;;;;;;;;;;;;;;;;348815;28;956;-74
2022/04/07 00:45:50;;;;;;;;;;;;;;;;;;348670;28;1146;-75
2022/04/07 00:46:00;;;;;;;;;;;;;;;;;;348752;28;829;-75
2022/04/07 00:46:11;;;;;;;;;;;;;;;;;;348755;28;778;-75
2022/04/07 00:46:21;;;;;;;;;;;;;;;;;;348675;28;983;-78
2022/04/07 00:46:31;;;;;;;;;;;;;;;;;;348725;28;932;-75
2022/04/07 00:46:41;;;;;;;;;;;;;;;;;;348734;28;971;-75
2022/04/07 00:46:52;;;;;;;;;;;;;;;;;;348729;28;900;-76
2022/04/07 00:47:02;;;;;;;;;;;;;;;;;;348452;28;1680;-75
2022/04/07 00:47:12;;;;;;;;;;;;;;;;;;348725;28;960;-74
2022/04/07 00:47:24;;;;;;;;;;;;;;;;;;348738;28;968;-75
2022/04/07 00:47:34;;;;;;;;;;;;;;;;;;348678;28;912;-74
2022/04/07 00:47:45;;;;;;;;;;;;;;;;;;348704;28;963;-75
2022/04/07 00:47:55;;;;;;;;;;;;;;;;;;348519;28;1743;-75
2022/04/07 00:48:05;;;;;;;;;;;;;;;;;;348641;28;1027;-74
2022/04/07 00:48:16;;;;;;;;;;;;;;;;;;348714;28;1012;-73
2022/04/07 00:48:27;;;;;;;;;;;;;;;;;;348734;28;905;-74
2022/04/07 00:48:37;;;;;;;;;;;;;;;;;;348664;28;968;-75
2022/04/07 00:48:47;;;;;;;;;;;;;;;;;;348735;28;770;-74
2022/04/07 00:48:57;;;;;;;;;;;;;;;;;;348484;28;1785;-75
2022/04/07 00:49:09;;;;;;;;;;;;;;;;;;348719;28;960;-76
2022/04/07 00:49:19;;;;;;;;;;;;;;;;;;348313;28;1694;-75
2022/04/07 00:49:29;;;;;;;;;;;;;;;;;;348652;28;1784;-75
2022/04/07 00:49:39;;;;;;;;;;;;;;;;;;348684;28;925;-75
2022/04/07 00:49:50;;;;;;;;;;;;;;;;;;348586;28;1011;-75
2022/04/07 00:50:00;;;;;;;;;;;;;;;;;;348788;28;876;-75
2022/04/07 00:50:11;;;;;;;;;;;;;;;;;;348670;28;978;-75
2022/04/07 00:50:21;;;;;;;;;;;;;;;;;;348566;28;1741;-75
2022/04/07 00:50:31;;;;;;;;;;;;;;;;;;348585;28;1864;-75
2022/04/07 00:50:41;;;;;;;;;;;;;;;;;;348630;28;911;-74
2022/04/07 00:50:53;;;;;;;;;;;;;;;;;;348660;28;960;-75
2022/04/07 00:51:05;;;;;;;;;;;;;;;;;;348712;28;1058;-74
2022/04/07 00:51:15;;;;;;;;;;;;;;;;;;348731;28;904;-75
2022/04/07 00:51:25;;;;;;;;;;;;;;;;;;348656;28;1624;-76
2022/04/07 00:51:39;;;;;;;;;;;;;;;;;;348733;28;804;-73
2022/04/07 00:51:49;;;;;;;;;;;;;;;;;;348724;28;789;-75
2022/04/07 00:52:00;;;;;;;;;;;;;;;;;;348698;28;936;-75
2022/04/07 00:52:11;;;;;;;;;;;;;;;;;;348679;28;932;-75
2022/04/07 00:52:22;;;;;;;;;;;;;;;;;;348716;28;932;-78
2022/04/07 00:52:33;;;;;;;;;;;;;;;;;;348631;28;1019;-75
2022/04/07 00:52:50;;;;;;;;;;;;;;;;;;347850;28;1446;-74
2022/04/07 00:53:02;;;;;;;;;;;;;;;;;;347298;28;992;-76
2022/04/07 00:53:12;;;;;;;;;;;;;;;;;;347194;28;1371;-79
2022/04/07 00:53:23;;;;;;;;;;;;;;;;;;347351;28;1007;-74
2022/04/07 00:53:34;;;;;;;;;;;;;;;;;;347043;28;1423;-78
2022/04/07 00:53:45;;;;;;;;;;;;;;;;;;348457;28;1664;-74
2022/04/07 00:53:56;;;;;;;;;;;;;;;;;;348682;28;1000;-75
2022/04/07 00:54:07;;;;;;;;;;;;;;;;;;348457;28;1637;-75
2022/04/07 00:54:18;;;;;;;;;;;;;;;;;;348627;28;1780;-75
2022/04/07 00:54:28;;;;;;;;;;;;;;;;;;348707;28;964;-75
2022/04/07 00:54:39;;;;;;;;;;;;;;;;;;348682;28;924;-76
2022/04/07 00:54:49;;;;;;;;;;;;;;;;;;348012;28;1375;-76
2022/04/07 00:55:01;;;;;;;;;;;;;;;;;;348725;28;801;-75
2022/04/07 00:55:11;;;;;;;;;;;;;;;;;;348592;28;1367;-74
2022/04/07 00:55:22;;;;;;;;;;;;;;;;;;348734;28;869;-75
2022/04/07 00:55:33;;;;;;;;;;;;;;;;;;348439;28;1676;-75
2022/04/07 00:55:43;;;;;;;;;;;;;;;;;;348671;28;1789;-75
2022/04/07 00:55:53;;;;;;;;;;;;;;;;;;348711;28;937;-75
2022/04/07 00:56:05;;;;;;;;;;;;;;;;;;348626;28;924;-74
2022/04/07 00:56:15;;;;;;;;;;;;;;;;;;348690;28;1235;-76
2022/04/07 00:56:26;;;;;;;;;;;;;;;;;;348730;28;983;-75
2022/04/07 00:56:37;;;;;;;;;;;;;;;;;;348454;28;1652;-75
2022/04/07 00:56:47;;;;;;;;;;;;;;;;;;348615;28;1255;-75
2022/04/07 00:56:59;;;;;;;;;;;;;;;;;;348673;28;1010;-75
2022/04/07 00:57:09;;;;;;;;;;;;;;;;;;348705;28;1023;-75
2022/04/07 00:57:20;;;;;;;;;;;;;;;;;;348627;28;1229;-75
2022/04/07 00:57:30;;;;;;;;;;;;;;;;;;348686;28;936;-75
2022/04/07 00:57:41;;;;;;;;;;;;;;;;;;348658;28;1011;-75
2022/04/07 00:57:51;;;;;;;;;;;;;;;;;;348786;28;880;-75
2022/04/07 00:58:02;;;;;;;;;;;;;;;;;;348724;28;864;-75
2022/04/07 00:58:12;;;;;;;;;;;;;;;;;;348706;28;948;-74
2022/04/07 00:58:23;;;;;;;;;;;;;;;;;;348657;28;1133;-74
2022/04/07 00:58:34;;;;;;;;;;;;;;;;;;348670;28;1029;-75
2022/04/07 00:58:47;;;;;;;;;;;;;;;;;;348705;28;877;-75
2022/04/07 00:58:57;;;;;;;;;;;;;;;;;;348727;28;851;-75
2022/04/07 00:59:07;;;;;;;;;;;;;;;;;;348705;28;825;-74
2022/04/07 00:59:18;;;;;;;;;;;;;;;;;;348747;28;979;-75
2022/04/07 00:59:28;;;;;;;;;;;;;;;;;;348700;28;936;-75
2022/04/07 00:59:39;;;;;;;;;;;;;;;;;;348534;28;1711;-74
2022/04/07 00:59:50;;;;;;;;;;;;;;;;;;347329;28;972;-75
2022/04/07 01:00:00;;;;;;;;;;;;;;;;;;347600;28;1566;-75
2022/04/07 01:00:11;;;;;;;;;;;;;;;;;;348243;28;1620;-75
2022/04/07 01:00:21;;;;;;;;;;;;;;;;;;348466;28;1003;-75
2022/04/07 01:00:31;;;;;;;;;;;;;;;;;;348487;28;909;-74
2022/04/07 01:00:41;;;;;;;;;;;;;;;;;;348612;28;928;-76
2022/04/07 01:00:51;;;;;;;;;;;;;;;;;;348688;28;969;-75
2022/04/07 01:01:02;;;;;;;;;;;;;;;;;;348658;28;1003;-75
2022/04/07 01:01:13;;;;;;;;;;;;;;;;;;348716;28;964;-74
2022/04/07 01:01:27;;;;;;;;;;;;;;;;;;348702;28;908;-74
2022/04/07 01:01:38;;;;;;;;;;;;;;;;;;348689;28;904;-78
2022/04/07 01:01:48;;;;;;;;;;;;;;;;;;348721;28;984;-77
2022/04/07 01:01:59;;;;;;;;;;;;;;;;;;348574;28;1770;-76
2022/04/07 01:02:10;;;;;;;;;;;;;;;;;;348622;28;980;-75
2022/04/07 01:02:20;;;;;;;;;;;;;;;;;;348674;28;960;-76
2022/04/07 01:02:30;;;;;;;;;;;;;;;;;;348649;28;1265;-76
2022/04/07 01:02:41;;;;;;;;;;;;;;;;;;348647;28;1139;-75
2022/04/07 01:02:51;;;;;;;;;;;;;;;;;;348590;28;913;-75
2022/04/07 01:03:01;;;;;;;;;;;;;;;;;;348483;28;1568;-75
2022/04/07 01:03:11;;;;;;;;;;;;;;;;;;348632;28;1103;-75
2022/04/07 01:03:22;;;;;;;;;;;;;;;;;;348689;28;995;-75
2022/04/07 01:03:33;;;;;;;;;;;;;;;;;;348616;28;1906;-76
2022/04/07 01:03:43;;;;;;;;;;;;;;;;;;348669;28;943;-75
2022/04/07 01:03:54;;;;;;;;;;;;;;;;;;348740;28;817;-75
2022/04/07 01:04:05;;;;;;;;;;;;;;;;;;348736;28;843;-77
2022/04/07 01:04:16;;;;;;;;;;;;;;;;;;348624;28;1663;-75
2022/04/07 01:04:26;;;;;;;;;;;;;;;;;;347917;28;1650;-74
2022/04/07 01:04:36;;;;;;;;;;;;;;;;;;348588;28;1507;-74
2022/04/07 01:04:47;;;;;;;;;;;;;;;;;;348725;28;940;-74
2022/04/07 01:04:57;;;;;;;;;;;;;;;;;;348366;28;1699;-74
2022/04/07 01:05:08;;;;;;;;;;;;;;;;;;348549;28;1808;-75
2022/04/07 01:05:20;;;;;;;;;;;;;;;;;;348711;28;961;-75
2022/04/07 01:05:31;;;;;;;;;;;;;;;;;;348700;28;983;-75
2022/04/07 01:05:41;;;;;;;;;;;;;;;;;;348717;28;1247;-75
2022/04/07 01:05:51;;;;;;;;;;;;;;;;;;348627;28;1222;-74
2022/04/07 01:06:03;;;;;;;;;;;;;;;;;;348674;28;1015;-75
2022/04/07 01:06:13;;;;;;;;;;;;;;;;;;348747;28;848;-77
2022/04/07 01:06:24;;;;;;;;;;;;;;;;;;348619;28;992;-77
2022/04/07 01:06:34;;;;;;;;;;;;;;;;;;348716;28;936;-75
2022/04/07 01:06:44;;;;;;;;;;;;;;;;;;348685;28;1012;-75
2022/04/07 01:06:54;;;;;;;;;;;;;;;;;;348702;28;902;-75
2022/04/07 01:07:06;;;;;;;;;;;;;;;;;;348619;28;1210;-75
2022/04/07 01:07:16;;;;;;;;;;;;;;;;;;348712;28;980;-76
2022/04/07 01:07:27;;;;;;;;;;;;;;;;;;348704;28;944;-77
2022/04/07 01:07:39;;;;;;;;;;;;;;;;;;351341;28;1293;-75
2022/04/07 01:07:49;;;;;;;;;;;;;;;;;;351378;28;1015;-75
2022/04/07 01:07:59;;;;;;;;;;;;;;;;;;351313;28;1067;-75
2022/04/07 01:08:10;;;;;;;;;;;;;;;;;;351342;28;948;-75
2022/04/07 01:08:20;;;;;;;;;;;;;;;;;;351383;28;916;-75
2022/04/07 01:08:31;;;;;;;;;;;;;;;;;;351141;28;1730;-75
2022/04/07 01:08:41;;;;;;;;;;;;;;;;;;351081;28;1744;-75
2022/04/07 01:08:52;;;;;;;;;;;;;;;;;;351303;28;1795;-75
2022/04/07 01:09:02;;;;;;;;;;;;;;;;;;351347;28;777;-74
2022/04/07 01:09:14;;;;;;;;;;;;;;;;;;351342;28;817;-75
2022/04/07 01:09:25;;;;;;;;;;;;;;;;;;351426;28;984;-77
2022/04/07 01:09:35;;;;;;;;;;;;;;;;;;349446;28;1005;-76
2022/04/07 01:09:46;;;;;;;;;;;;;;;;;;348670;28;1043;-75
2022/04/07 01:09:56;;;;;;;;;;;;;;;;;;348713;28;928;-75
2022/04/07 01:10:07;;;;;;;;;;;;;;;;;;348357;28;1763;-77
2022/04/07 01:10:19;;;;;;;;;;;;;;;;;;348464;28;1860;-75
2022/04/07 01:10:29;;;;;;;;;;;;;;;;;;348305;28;1777;-75
2022/04/07 01:10:40;;;;;;;;;;;;;;;;;;348658;28;921;-73
2022/04/07 01:10:51;;;;;;;;;;;;;;;;;;348700;28;1045;-74
2022/04/07 01:11:02;;;;;;;;;;;;;;;;;;348628;28;1012;-79
2022/04/07 01:11:13;;;;;;;;;;;;;;;;;;348676;28;864;-75
2022/04/07 01:11:25;;;;;;;;;;;;;;;;;;348661;28;976;-74
2022/04/07 01:11:37;;;;;;;;;;;;;;;;;;348672;28;1600;-74
2022/04/07 01:11:49;;;;;;;;;;;;;;;;;;348689;28;913;-75
2022/04/07 01:11:59;;;;;;;;;;;;;;;;;;348681;28;1112;-75
2022/04/07 01:12:10;;;;;;;;;;;;;;;;;;349730;28;1453;-75
2022/04/07 01:12:20;;;;;;;;;;;;;;;;;;350034;28;877;-75
2022/04/07 01:12:30;;;;;;;;;;;;;;;;;;350070;28;932;-75
2022/04/07 01:12:40;;;;;;;;;;;;;;;;;;350095;28;845;-75
2022/04/07 01:12:51;;;;;;;;;;;;;;;;;;348831;28;1721;-75
2022/04/07 01:13:01;;;;;;;;;;;;;;;;;;348709;28;770;-74
2022/04/07 01:13:12;;;;;;;;;;;;;;;;;;348683;28;963;-75
2022/04/07 01:13:22;;;;;;;;;;;;;;;;;;348668;28;858;-76
2022/04/07 01:13:45;;;;;;;;;;;;;;;;;;348695;28;991;-76
2022/04/07 01:13:56;;;;;;;;;;;;;;;;;;348316;28;1793;-76
2022/04/07 01:14:06;;;;;;;;;;;;;;;;;;348622;28;1745;-79
2022/04/07 01:14:16;;;;;;;;;;;;;;;;;;348722;28;857;-74
2022/04/07 01:14:26;;;;;;;;;;;;;;;;;;348656;28;984;-75
2022/04/07 01:14:51;;;;;;;;;;;;;;;;;;348675;28;964;-75
2022/04/07 01:15:03;;;;;;;;;;;;;;;;;;348668;28;976;-75
2022/04/07 01:15:13;;;;;;;;;;;;;;;;;;348662;28;964;-75
2022/04/07 01:15:24;;;;;;;;;;;;;;;;;;348752;28;900;-75
2022/04/07 01:15:34;;;;;;;;;;;;;;;;;;348592;28;925;-75
2022/04/07 01:15:44;;;;;;;;;;;;;;;;;;348712;28;888;-75
2022/04/07 01:15:54;;;;;;;;;;;;;;;;;;348388;28;1706;-80
2022/04/07 01:16:04;;;;;;;;;;;;;;;;;;348719;28;968;-76
2022/04/07 01:16:15;;;;;;;;;;;;;;;;;;348634;28;805;-76
2022/04/07 01:16:26;;;;;;;;;;;;;;;;;;348649;28;857;-78
2022/04/07 01:16:37;;;;;;;;;;;;;;;;;;348679;28;932;-75
2022/04/07 01:16:47;;;;;;;;;;;;;;;;;;348686;28;968;-75
2022/04/07 01:16:57;;;;;;;;;;;;;;;;;;348699;28;936;-75